sensor_id;sensor_type;location;lat;lon;timestamp;P1;durP1;ratioP1;P2;durP2;ratioP2
16510;SDS011;8368;48.772;8.754;2023-10-08T00:00:46;5.07;;;2.33;;
16510;SDS011;8368;48.772;8.754;2023-10-08T00:03:15;3.47;;;2.63;;
16510;SDS011;8368;48.772;8.754;2023-10-08T00:05:42;3.97;;;2.60;;
16510;SDS011;8368;48.772;8.754;2023-10-08T00:08:08;3.53;;;2.57;;
16510;SDS011;8368;48.772;8.754;2023-10-08T00:10:37;4.33;;;2.50;;
16510;SDS011;8368;48.772;8.754;2023-10-08T00:13:08;2.67;;;2.47;;
16510;SDS011;8368;48.772;8.754;2023-10-08T00:15:40;3.17;;;2.47;;
16510;SDS011;8368;48.772;8.754;2023-10-08T00:18:15;6.10;;;2.30;;
16510;SDS011;8368;48.772;8.754;2023-10-08T00:20:40;4.80;;;1.87;;
16510;SDS011;8368;48.772;8.754;2023-10-08T00:23:22;2.53;;;2.10;;
16510;SDS011;8368;48.772;8.754;2023-10-08T00:25:50;4.57;;;1.90;;
16510;SDS011;8368;48.772;8.754;2023-10-08T00:28:16;3.70;;;1.90;;
16510;SDS011;8368;48.772;8.754;2023-10-08T00:30:42;4.20;;;1.90;;
16510;SDS011;8368;48.772;8.754;2023-10-08T00:33:09;2.93;;;1.63;;
16510;SDS011;8368;48.772;8.754;2023-10-08T00:35:39;3.83;;;1.70;;
16510;SDS011;8368;48.772;8.754;2023-10-08T00:38:09;2.23;;;1.80;;
16510;SDS011;8368;48.772;8.754;2023-10-08T00:40:45;2.70;;;2.20;;
16510;SDS011;8368;48.772;8.754;2023-10-08T00:46:03;4.65;;;1.70;;
16510;SDS011;8368;48.772;8.754;2023-10-08T00:48:42;2.60;;;1.50;;
16510;SDS011;8368;48.772;8.754;2023-10-08T00:51:09;3.75;;;1.92;;
16510;SDS011;8368;48.772;8.754;2023-10-08T00:53:51;2.85;;;1.98;;
16510;SDS011;8368;48.772;8.754;2023-10-08T00:56:26;3.63;;;1.90;;
16510;SDS011;8368;48.772;8.754;2023-10-08T00:59:11;3.70;;;1.85;;
16510;SDS011;8368;48.772;8.754;2023-10-08T01:01:43;2.25;;;2.03;;
16510;SDS011;8368;48.772;8.754;2023-10-08T01:04:19;2.90;;;1.63;;
16510;SDS011;8368;48.772;8.754;2023-10-08T01:06:51;4.82;;;2.35;;
16510;SDS011;8368;48.772;8.754;2023-10-08T01:09:24;3.65;;;2.13;;
16510;SDS011;8368;48.772;8.754;2023-10-08T01:14:47;3.80;;;1.65;;
16510;SDS011;8368;48.772;8.754;2023-10-08T01:17:18;3.33;;;1.95;;
16510;SDS011;8368;48.772;8.754;2023-10-08T01:19:47;5.28;;;1.95;;
16510;SDS011;8368;48.772;8.754;2023-10-08T01:22:19;2.88;;;1.92;;
16510;SDS011;8368;48.772;8.754;2023-10-08T01:24:47;2.80;;;2.13;;
16510;SDS011;8368;48.772;8.754;2023-10-08T01:27:16;5.22;;;1.95;;
16510;SDS011;8368;48.772;8.754;2023-10-08T01:29:49;4.88;;;1.80;;
16510;SDS011;8368;48.772;8.754;2023-10-08T01:32:19;4.07;;;2.03;;
16510;SDS011;8368;48.772;8.754;2023-10-08T01:34:47;6.03;;;2.35;;
16510;SDS011;8368;48.772;8.754;2023-10-08T01:37:17;4.70;;;2.10;;
16510;SDS011;8368;48.772;8.754;2023-10-08T01:39:44;2.10;;;1.88;;
16510;SDS011;8368;48.772;8.754;2023-10-08T01:42:10;8.02;;;2.08;;
16510;SDS011;8368;48.772;8.754;2023-10-08T01:44:45;8.02;;;2.58;;
16510;SDS011;8368;48.772;8.754;2023-10-08T01:47:12;3.33;;;1.90;;
16510;SDS011;8368;48.772;8.754;2023-10-08T01:49:38;5.75;;;2.15;;
16510;SDS011;8368;48.772;8.754;2023-10-08T01:52:05;3.78;;;1.75;;
16510;SDS011;8368;48.772;8.754;2023-10-08T01:54:38;6.50;;;2.25;;
16510;SDS011;8368;48.772;8.754;2023-10-08T01:57:03;5.32;;;1.90;;
16510;SDS011;8368;48.772;8.754;2023-10-08T01:59:30;8.25;;;2.50;;
16510;SDS011;8368;48.772;8.754;2023-10-08T02:01:56;3.75;;;1.92;;
16510;SDS011;8368;48.772;8.754;2023-10-08T02:04:22;3.35;;;2.22;;
16510;SDS011;8368;48.772;8.754;2023-10-08T02:06:48;5.25;;;2.15;;
16510;SDS011;8368;48.772;8.754;2023-10-08T02:09:13;8.57;;;2.17;;
16510;SDS011;8368;48.772;8.754;2023-10-08T02:11:44;3.28;;;1.83;;
16510;SDS011;8368;48.772;8.754;2023-10-08T02:14:11;4.88;;;2.03;;
16510;SDS011;8368;48.772;8.754;2023-10-08T02:16:40;2.20;;;1.95;;
16510;SDS011;8368;48.772;8.754;2023-10-08T02:19:05;3.90;;;2.05;;
16510;SDS011;8368;48.772;8.754;2023-10-08T02:21:31;2.95;;;2.08;;
16510;SDS011;8368;48.772;8.754;2023-10-08T02:23:58;4.57;;;2.05;;
16510;SDS011;8368;48.772;8.754;2023-10-08T02:26:23;2.13;;;1.67;;
16510;SDS011;8368;48.772;8.754;2023-10-08T02:28:49;3.22;;;1.83;;
16510;SDS011;8368;48.772;8.754;2023-10-08T02:31:17;2.92;;;1.90;;
16510;SDS011;8368;48.772;8.754;2023-10-08T02:33:43;2.22;;;1.55;;
16510;SDS011;8368;48.772;8.754;2023-10-08T02:36:09;4.40;;;2.13;;
16510;SDS011;8368;48.772;8.754;2023-10-08T02:38:35;3.60;;;2.15;;
16510;SDS011;8368;48.772;8.754;2023-10-08T02:41:04;3.17;;;1.83;;
16510;SDS011;8368;48.772;8.754;2023-10-08T02:43:33;5.90;;;2.30;;
16510;SDS011;8368;48.772;8.754;2023-10-08T02:45:59;4.47;;;2.28;;
16510;SDS011;8368;48.772;8.754;2023-10-08T02:48:25;5.72;;;1.90;;
16510;SDS011;8368;48.772;8.754;2023-10-08T02:50:52;3.92;;;1.92;;
16510;SDS011;8368;48.772;8.754;2023-10-08T02:53:19;6.28;;;1.77;;
16510;SDS011;8368;48.772;8.754;2023-10-08T02:55:48;2.33;;;1.60;;
16510;SDS011;8368;48.772;8.754;2023-10-08T02:58:15;3.72;;;2.03;;
16510;SDS011;8368;48.772;8.754;2023-10-08T03:00:41;4.22;;;1.90;;
16510;SDS011;8368;48.772;8.754;2023-10-08T03:03:12;5.13;;;2.05;;
16510;SDS011;8368;48.772;8.754;2023-10-08T03:05:53;5.88;;;1.80;;
16510;SDS011;8368;48.772;8.754;2023-10-08T03:08:21;4.53;;;1.85;;
16510;SDS011;8368;48.772;8.754;2023-10-08T03:10:52;3.97;;;1.95;;
16510;SDS011;8368;48.772;8.754;2023-10-08T03:13:23;3.13;;;1.58;;
16510;SDS011;8368;48.772;8.754;2023-10-08T03:15:51;2.97;;;2.33;;
16510;SDS011;8368;48.772;8.754;2023-10-08T03:18:33;6.10;;;1.92;;
16510;SDS011;8368;48.772;8.754;2023-10-08T03:21:05;2.22;;;1.80;;
16510;SDS011;8368;48.772;8.754;2023-10-08T03:23:44;3.50;;;1.95;;
16510;SDS011;8368;48.772;8.754;2023-10-08T03:26:15;5.07;;;2.08;;
16510;SDS011;8368;48.772;8.754;2023-10-08T03:28:56;2.30;;;2.00;;
16510;SDS011;8368;48.772;8.754;2023-10-08T03:31:23;4.28;;;2.00;;
16510;SDS011;8368;48.772;8.754;2023-10-08T03:34:10;3.88;;;1.67;;
16510;SDS011;8368;48.772;8.754;2023-10-08T03:36:40;3.90;;;2.13;;
16510;SDS011;8368;48.772;8.754;2023-10-08T03:39:12;4.03;;;1.75;;
16510;SDS011;8368;48.772;8.754;2023-10-08T03:41:39;3.60;;;2.38;;
16510;SDS011;8368;48.772;8.754;2023-10-08T03:44:06;3.25;;;2.28;;
16510;SDS011;8368;48.772;8.754;2023-10-08T03:46:39;5.28;;;2.10;;
16510;SDS011;8368;48.772;8.754;2023-10-08T03:49:11;2.80;;;1.90;;
16510;SDS011;8368;48.772;8.754;2023-10-08T03:51:50;2.23;;;1.83;;
16510;SDS011;8368;48.772;8.754;2023-10-08T03:54:22;4.72;;;2.60;;
16510;SDS011;8368;48.772;8.754;2023-10-08T03:57:00;2.67;;;1.92;;
16510;SDS011;8368;48.772;8.754;2023-10-08T03:59:29;4.18;;;1.77;;
16510;SDS011;8368;48.772;8.754;2023-10-08T04:01:59;3.17;;;1.83;;
16510;SDS011;8368;48.772;8.754;2023-10-08T04:04:46;2.50;;;1.85;;
16510;SDS011;8368;48.772;8.754;2023-10-08T04:07:25;3.00;;;2.20;;
16510;SDS011;8368;48.772;8.754;2023-10-08T04:10:04;4.53;;;2.00;;
16510;SDS011;8368;48.772;8.754;2023-10-08T04:12:33;2.05;;;1.55;;
16510;SDS011;8368;48.772;8.754;2023-10-08T04:15:07;2.00;;;1.90;;
16510;SDS011;8368;48.772;8.754;2023-10-08T04:17:35;3.22;;;1.95;;
16510;SDS011;8368;48.772;8.754;2023-10-08T04:20:09;2.65;;;1.90;;
16510;SDS011;8368;48.772;8.754;2023-10-08T04:22:59;1.95;;;1.77;;
16510;SDS011;8368;48.772;8.754;2023-10-08T04:25:29;4.93;;;1.98;;
16510;SDS011;8368;48.772;8.754;2023-10-08T04:27:58;4.57;;;1.92;;
16510;SDS011;8368;48.772;8.754;2023-10-08T04:30:25;2.15;;;1.83;;
16510;SDS011;8368;48.772;8.754;2023-10-08T04:32:58;2.33;;;1.85;;
16510;SDS011;8368;48.772;8.754;2023-10-08T04:35:43;2.72;;;1.90;;
16510;SDS011;8368;48.772;8.754;2023-10-08T04:38:22;2.67;;;2.20;;
16510;SDS011;8368;48.772;8.754;2023-10-08T04:40:53;3.92;;;2.03;;
16510;SDS011;8368;48.772;8.754;2023-10-08T04:43:22;5.72;;;2.38;;
16510;SDS011;8368;48.772;8.754;2023-10-08T04:45:52;2.15;;;1.60;;
16510;SDS011;8368;48.772;8.754;2023-10-08T04:48:19;2.95;;;1.90;;
16510;SDS011;8368;48.772;8.754;2023-10-08T04:50:48;4.90;;;2.70;;
16510;SDS011;8368;48.772;8.754;2023-10-08T04:53:27;2.10;;;1.85;;
16510;SDS011;8368;48.772;8.754;2023-10-08T04:56:01;5.45;;;2.00;;
16510;SDS011;8368;48.772;8.754;2023-10-08T04:58:30;3.00;;;2.13;;
16510;SDS011;8368;48.772;8.754;2023-10-08T05:01:02;2.60;;;1.70;;
16510;SDS011;8368;48.772;8.754;2023-10-08T05:03:45;3.95;;;2.17;;
16510;SDS011;8368;48.772;8.754;2023-10-08T05:08:59;6.20;;;2.75;;
16510;SDS011;8368;48.772;8.754;2023-10-08T05:11:35;4.88;;;2.08;;
16510;SDS011;8368;48.772;8.754;2023-10-08T05:14:22;3.83;;;2.20;;
16510;SDS011;8368;48.772;8.754;2023-10-08T05:16:58;2.38;;;2.17;;
16510;SDS011;8368;48.772;8.754;2023-10-08T05:19:37;4.78;;;1.98;;
16510;SDS011;8368;48.772;8.754;2023-10-08T05:22:05;4.55;;;2.25;;
16510;SDS011;8368;48.772;8.754;2023-10-08T05:25:03;2.72;;;2.00;;
16510;SDS011;8368;48.772;8.754;2023-10-08T05:27:51;2.95;;;2.22;;
16510;SDS011;8368;48.772;8.754;2023-10-08T05:30:21;6.55;;;4.43;;
16510;SDS011;8368;48.772;8.754;2023-10-08T05:33:03;3.05;;;2.75;;
16510;SDS011;8368;48.772;8.754;2023-10-08T05:35:38;3.33;;;3.03;;
16510;SDS011;8368;48.772;8.754;2023-10-08T05:38:05;6.03;;;2.38;;
16510;SDS011;8368;48.772;8.754;2023-10-08T05:40:50;4.00;;;2.38;;
16510;SDS011;8368;48.772;8.754;2023-10-08T05:43:23;3.08;;;2.40;;
16510;SDS011;8368;48.772;8.754;2023-10-08T05:46:14;4.40;;;1.90;;
16510;SDS011;8368;48.772;8.754;2023-10-08T05:48:56;5.75;;;2.03;;
16510;SDS011;8368;48.772;8.754;2023-10-08T05:51:41;2.55;;;1.90;;
16510;SDS011;8368;48.772;8.754;2023-10-08T05:56:55;3.53;;;2.13;;
16510;SDS011;8368;48.772;8.754;2023-10-08T05:59:36;3.13;;;2.20;;
16510;SDS011;8368;48.772;8.754;2023-10-08T06:05:09;3.95;;;2.25;;
16510;SDS011;8368;48.772;8.754;2023-10-08T06:07:38;12.63;;;6.65;;
16510;SDS011;8368;48.772;8.754;2023-10-08T06:10:21;6.15;;;3.47;;
16510;SDS011;8368;48.772;8.754;2023-10-08T06:12:59;3.42;;;2.50;;
16510;SDS011;8368;48.772;8.754;2023-10-08T06:18:12;9.02;;;5.40;;
16510;SDS011;8368;48.772;8.754;2023-10-08T06:20:39;5.75;;;4.47;;
16510;SDS011;8368;48.772;8.754;2023-10-08T06:23:08;3.63;;;3.22;;
16510;SDS011;8368;48.772;8.754;2023-10-08T06:25:40;5.28;;;2.33;;
16510;SDS011;8368;48.772;8.754;2023-10-08T06:28:18;3.13;;;2.50;;
16510;SDS011;8368;48.772;8.754;2023-10-08T06:30:45;2.90;;;2.60;;
16510;SDS011;8368;48.772;8.754;2023-10-08T06:33:11;3.80;;;2.72;;
16510;SDS011;8368;48.772;8.754;2023-10-08T06:35:36;4.25;;;2.33;;
16510;SDS011;8368;48.772;8.754;2023-10-08T06:38:02;2.55;;;2.10;;
16510;SDS011;8368;48.772;8.754;2023-10-08T06:40:40;4.72;;;3.03;;
16510;SDS011;8368;48.772;8.754;2023-10-08T06:43:07;3.13;;;2.83;;
16510;SDS011;8368;48.772;8.754;2023-10-08T06:45:49;4.57;;;2.60;;
16510;SDS011;8368;48.772;8.754;2023-10-08T06:48:19;4.15;;;2.50;;
16510;SDS011;8368;48.772;8.754;2023-10-08T06:50:45;4.93;;;2.53;;
16510;SDS011;8368;48.772;8.754;2023-10-08T06:53:12;4.13;;;2.40;;
16510;SDS011;8368;48.772;8.754;2023-10-08T06:55:43;4.78;;;2.38;;
16510;SDS011;8368;48.772;8.754;2023-10-08T06:58:13;3.92;;;2.70;;
16510;SDS011;8368;48.772;8.754;2023-10-08T07:00:40;4.93;;;3.00;;
16510;SDS011;8368;48.772;8.754;2023-10-08T07:03:12;5.63;;;2.45;;
16510;SDS011;8368;48.772;8.754;2023-10-08T07:05:43;5.25;;;2.75;;
16510;SDS011;8368;48.772;8.754;2023-10-08T07:08:22;3.35;;;2.22;;
16510;SDS011;8368;48.772;8.754;2023-10-08T07:10:49;6.28;;;2.72;;
16510;SDS011;8368;48.772;8.754;2023-10-08T07:13:15;2.97;;;2.45;;
16510;SDS011;8368;48.772;8.754;2023-10-08T07:15:43;4.28;;;2.30;;
16510;SDS011;8368;48.772;8.754;2023-10-08T07:18:10;7.93;;;3.00;;
16510;SDS011;8368;48.772;8.754;2023-10-08T07:20:40;3.63;;;2.75;;
16510;SDS011;8368;48.772;8.754;2023-10-08T07:23:10;6.35;;;2.53;;
16510;SDS011;8368;48.772;8.754;2023-10-08T07:25:46;3.83;;;2.47;;
16510;SDS011;8368;48.772;8.754;2023-10-08T07:28:18;4.20;;;3.28;;
16510;SDS011;8368;48.772;8.754;2023-10-08T07:30:45;2.92;;;2.42;;
16510;SDS011;8368;48.772;8.754;2023-10-08T07:33:11;6.95;;;2.83;;
16510;SDS011;8368;48.772;8.754;2023-10-08T07:35:43;8.05;;;2.70;;
16510;SDS011;8368;48.772;8.754;2023-10-08T07:38:18;6.82;;;2.45;;
16510;SDS011;8368;48.772;8.754;2023-10-08T07:40:44;5.97;;;2.72;;
16510;SDS011;8368;48.772;8.754;2023-10-08T07:43:10;6.22;;;2.42;;
16510;SDS011;8368;48.772;8.754;2023-10-08T07:45:36;3.67;;;2.53;;
16510;SDS011;8368;48.772;8.754;2023-10-08T07:48:01;5.70;;;3.00;;
16510;SDS011;8368;48.772;8.754;2023-10-08T07:50:34;8.35;;;2.63;;
16510;SDS011;8368;48.772;8.754;2023-10-08T07:53:02;6.25;;;2.65;;
16510;SDS011;8368;48.772;8.754;2023-10-08T07:55:29;7.00;;;2.60;;
16510;SDS011;8368;48.772;8.754;2023-10-08T07:57:57;7.90;;;2.92;;
16510;SDS011;8368;48.772;8.754;2023-10-08T08:00:23;6.05;;;2.80;;
16510;SDS011;8368;48.772;8.754;2023-10-08T08:02:51;6.22;;;2.67;;
16510;SDS011;8368;48.772;8.754;2023-10-08T08:05:21;6.63;;;2.85;;
16510;SDS011;8368;48.772;8.754;2023-10-08T08:07:47;4.82;;;2.50;;
16510;SDS011;8368;48.772;8.754;2023-10-08T08:10:14;6.78;;;2.65;;
16510;SDS011;8368;48.772;8.754;2023-10-08T08:12:40;4.93;;;2.45;;
16510;SDS011;8368;48.772;8.754;2023-10-08T08:15:07;11.02;;;3.08;;
16510;SDS011;8368;48.772;8.754;2023-10-08T08:17:42;4.30;;;2.40;;
16510;SDS011;8368;48.772;8.754;2023-10-08T08:20:09;7.68;;;2.63;;
16510;SDS011;8368;48.772;8.754;2023-10-08T08:22:44;7.63;;;2.80;;
16510;SDS011;8368;48.772;8.754;2023-10-08T08:25:19;3.53;;;2.53;;
16510;SDS011;8368;48.772;8.754;2023-10-08T08:28:08;5.57;;;2.50;;
16510;SDS011;8368;48.772;8.754;2023-10-08T08:30:41;4.60;;;2.35;;
16510;SDS011;8368;48.772;8.754;2023-10-08T08:33:11;5.82;;;2.38;;
16510;SDS011;8368;48.772;8.754;2023-10-08T08:35:38;5.20;;;2.55;;
16510;SDS011;8368;48.772;8.754;2023-10-08T08:38:04;9.15;;;3.85;;
16510;SDS011;8368;48.772;8.754;2023-10-08T08:40:31;4.30;;;2.63;;
16510;SDS011;8368;48.772;8.754;2023-10-08T08:42:57;5.75;;;2.50;;
16510;SDS011;8368;48.772;8.754;2023-10-08T08:45:27;6.40;;;2.63;;
16510;SDS011;8368;48.772;8.754;2023-10-08T08:47:58;13.05;;;4.90;;
16510;SDS011;8368;48.772;8.754;2023-10-08T08:50:24;23.52;;;7.55;;
16510;SDS011;8368;48.772;8.754;2023-10-08T08:52:51;3.60;;;3.05;;
16510;SDS011;8368;48.772;8.754;2023-10-08T08:55:17;6.15;;;3.13;;
16510;SDS011;8368;48.772;8.754;2023-10-08T08:57:46;7.72;;;2.65;;
16510;SDS011;8368;48.772;8.754;2023-10-08T09:00:13;9.43;;;2.70;;
16510;SDS011;8368;48.772;8.754;2023-10-08T09:02:46;5.88;;;3.55;;
16510;SDS011;8368;48.772;8.754;2023-10-08T09:05:14;7.47;;;2.55;;
16510;SDS011;8368;48.772;8.754;2023-10-08T09:07:59;5.32;;;2.42;;
16510;SDS011;8368;48.772;8.754;2023-10-08T09:10:30;5.93;;;2.65;;
16510;SDS011;8368;48.772;8.754;2023-10-08T09:13:02;7.45;;;3.00;;
16510;SDS011;8368;48.772;8.754;2023-10-08T09:15:29;6.28;;;2.67;;
16510;SDS011;8368;48.772;8.754;2023-10-08T09:17:55;5.00;;;2.72;;
16510;SDS011;8368;48.772;8.754;2023-10-08T09:20:22;4.57;;;2.83;;
16510;SDS011;8368;48.772;8.754;2023-10-08T09:23:07;6.35;;;2.60;;
16510;SDS011;8368;48.772;8.754;2023-10-08T09:25:37;4.18;;;2.55;;
16510;SDS011;8368;48.772;8.754;2023-10-08T09:28:07;5.60;;;2.70;;
16510;SDS011;8368;48.772;8.754;2023-10-08T09:30:36;7.63;;;3.10;;
16510;SDS011;8368;48.772;8.754;2023-10-08T09:33:06;5.93;;;2.55;;
16510;SDS011;8368;48.772;8.754;2023-10-08T09:35:32;6.40;;;2.65;;
16510;SDS011;8368;48.772;8.754;2023-10-08T09:37:59;4.60;;;2.80;;
16510;SDS011;8368;48.772;8.754;2023-10-08T09:40:27;7.57;;;2.90;;
16510;SDS011;8368;48.772;8.754;2023-10-08T09:42:53;7.57;;;2.75;;
16510;SDS011;8368;48.772;8.754;2023-10-08T09:45:19;6.43;;;2.50;;
16510;SDS011;8368;48.772;8.754;2023-10-08T09:47:50;7.93;;;4.00;;
16510;SDS011;8368;48.772;8.754;2023-10-08T09:50:27;5.75;;;2.83;;
16510;SDS011;8368;48.772;8.754;2023-10-08T09:53:01;6.47;;;3.00;;
16510;SDS011;8368;48.772;8.754;2023-10-08T09:55:56;5.53;;;3.03;;
16510;SDS011;8368;48.772;8.754;2023-10-08T09:58:23;8.43;;;3.20;;
16510;SDS011;8368;48.772;8.754;2023-10-08T10:00:51;4.38;;;2.47;;
16510;SDS011;8368;48.772;8.754;2023-10-08T10:03:19;7.65;;;2.70;;
16510;SDS011;8368;48.772;8.754;2023-10-08T10:05:47;4.28;;;2.70;;
16510;SDS011;8368;48.772;8.754;2023-10-08T10:08:15;5.95;;;2.42;;
16510;SDS011;8368;48.772;8.754;2023-10-08T10:10:41;11.35;;;3.05;;
16510;SDS011;8368;48.772;8.754;2023-10-08T10:13:13;7.32;;;2.63;;
16510;SDS011;8368;48.772;8.754;2023-10-08T10:15:42;5.00;;;2.47;;
16510;SDS011;8368;48.772;8.754;2023-10-08T10:20:45;10.50;;;2.70;;
16510;SDS011;8368;48.772;8.754;2023-10-08T10:26:01;9.70;;;3.13;;
16510;SDS011;8368;48.772;8.754;2023-10-08T10:28:28;10.40;;;3.10;;
16510;SDS011;8368;48.772;8.754;2023-10-08T10:30:54;9.35;;;2.80;;
16510;SDS011;8368;48.772;8.754;2023-10-08T10:33:22;9.90;;;3.00;;
16510;SDS011;8368;48.772;8.754;2023-10-08T10:35:55;9.32;;;2.80;;
16510;SDS011;8368;48.772;8.754;2023-10-08T10:38:20;9.80;;;2.30;;
16510;SDS011;8368;48.772;8.754;2023-10-08T10:40:51;5.85;;;2.67;;
16510;SDS011;8368;48.772;8.754;2023-10-08T10:43:23;6.93;;;2.78;;
16510;SDS011;8368;48.772;8.754;2023-10-08T10:45:57;9.40;;;3.08;;
16510;SDS011;8368;48.772;8.754;2023-10-08T10:48:44;6.30;;;2.47;;
16510;SDS011;8368;48.772;8.754;2023-10-08T10:51:22;6.80;;;2.88;;
16510;SDS011;8368;48.772;8.754;2023-10-08T10:53:48;9.02;;;2.67;;
16510;SDS011;8368;48.772;8.754;2023-10-08T10:56:25;9.00;;;3.45;;
16510;SDS011;8368;48.772;8.754;2023-10-08T10:59:04;8.98;;;2.72;;
16510;SDS011;8368;48.772;8.754;2023-10-08T11:01:46;6.90;;;2.90;;
16510;SDS011;8368;48.772;8.754;2023-10-08T11:04:17;11.52;;;2.85;;
16510;SDS011;8368;48.772;8.754;2023-10-08T11:06:46;6.68;;;2.72;;
16510;SDS011;8368;48.772;8.754;2023-10-08T11:09:15;10.35;;;2.88;;
16510;SDS011;8368;48.772;8.754;2023-10-08T11:11:45;9.23;;;3.03;;
16510;SDS011;8368;48.772;8.754;2023-10-08T11:14:19;7.55;;;3.45;;
16510;SDS011;8368;48.772;8.754;2023-10-08T11:16:45;8.70;;;3.10;;
16510;SDS011;8368;48.772;8.754;2023-10-08T11:19:13;7.72;;;2.85;;
16510;SDS011;8368;48.772;8.754;2023-10-08T11:21:53;10.23;;;3.30;;
16510;SDS011;8368;48.772;8.754;2023-10-08T11:24:30;9.05;;;2.78;;
16510;SDS011;8368;48.772;8.754;2023-10-08T11:26:59;9.23;;;3.00;;
16510;SDS011;8368;48.772;8.754;2023-10-08T11:29:40;13.75;;;3.30;;
16510;SDS011;8368;48.772;8.754;2023-10-08T11:32:07;9.40;;;2.60;;
16510;SDS011;8368;48.772;8.754;2023-10-08T11:34:37;10.05;;;2.85;;
16510;SDS011;8368;48.772;8.754;2023-10-08T11:37:04;10.93;;;3.40;;
16510;SDS011;8368;48.772;8.754;2023-10-08T11:39:44;6.68;;;2.83;;
16510;SDS011;8368;48.772;8.754;2023-10-08T11:42:11;10.48;;;2.95;;
16510;SDS011;8368;48.772;8.754;2023-10-08T11:44:54;5.53;;;2.90;;
16510;SDS011;8368;48.772;8.754;2023-10-08T11:47:20;13.50;;;3.15;;
16510;SDS011;8368;48.772;8.754;2023-10-08T11:49:50;5.93;;;2.88;;
16510;SDS011;8368;48.772;8.754;2023-10-08T11:52:22;10.85;;;3.22;;
16510;SDS011;8368;48.772;8.754;2023-10-08T11:54:48;6.20;;;2.88;;
16510;SDS011;8368;48.772;8.754;2023-10-08T11:57:17;8.57;;;3.30;;
16510;SDS011;8368;48.772;8.754;2023-10-08T11:59:46;8.52;;;2.97;;
16510;SDS011;8368;48.772;8.754;2023-10-08T12:02:12;8.98;;;2.83;;
16510;SDS011;8368;48.772;8.754;2023-10-08T12:04:41;7.80;;;2.80;;
16510;SDS011;8368;48.772;8.754;2023-10-08T12:07:09;11.45;;;2.92;;
16510;SDS011;8368;48.772;8.754;2023-10-08T12:09:35;7.25;;;3.20;;
16510;SDS011;8368;48.772;8.754;2023-10-08T12:12:04;9.10;;;3.20;;
16510;SDS011;8368;48.772;8.754;2023-10-08T12:14:34;11.30;;;2.83;;
16510;SDS011;8368;48.772;8.754;2023-10-08T12:17:00;4.95;;;2.60;;
16510;SDS011;8368;48.772;8.754;2023-10-08T12:19:30;7.90;;;2.75;;
16510;SDS011;8368;48.772;8.754;2023-10-08T12:21:57;7.32;;;2.90;;
16510;SDS011;8368;48.772;8.754;2023-10-08T12:24:23;10.02;;;2.80;;
16510;SDS011;8368;48.772;8.754;2023-10-08T12:26:48;9.85;;;3.08;;
16510;SDS011;8368;48.772;8.754;2023-10-08T12:29:14;5.28;;;2.83;;
16510;SDS011;8368;48.772;8.754;2023-10-08T12:31:42;13.15;;;3.00;;
16510;SDS011;8368;48.772;8.754;2023-10-08T12:34:12;11.65;;;2.83;;
16510;SDS011;8368;48.772;8.754;2023-10-08T12:36:42;11.13;;;3.20;;
16510;SDS011;8368;48.772;8.754;2023-10-08T12:39:07;12.10;;;2.97;;
16510;SDS011;8368;48.772;8.754;2023-10-08T12:41:42;9.55;;;3.60;;
16510;SDS011;8368;48.772;8.754;2023-10-08T12:44:09;7.35;;;3.30;;
16510;SDS011;8368;48.772;8.754;2023-10-08T12:46:40;6.68;;;2.80;;
16510;SDS011;8368;48.772;8.754;2023-10-08T12:49:08;10.07;;;2.83;;
16510;SDS011;8368;48.772;8.754;2023-10-08T12:51:34;12.63;;;3.10;;
16510;SDS011;8368;48.772;8.754;2023-10-08T12:54:00;12.00;;;2.92;;
16510;SDS011;8368;48.772;8.754;2023-10-08T12:56:35;7.93;;;3.00;;
16510;SDS011;8368;48.772;8.754;2023-10-08T12:59:04;7.38;;;2.47;;
16510;SDS011;8368;48.772;8.754;2023-10-08T13:01:36;10.35;;;3.45;;
16510;SDS011;8368;48.772;8.754;2023-10-08T13:04:06;8.40;;;2.88;;
16510;SDS011;8368;48.772;8.754;2023-10-08T13:06:40;10.77;;;2.53;;
16510;SDS011;8368;48.772;8.754;2023-10-08T13:09:10;8.07;;;2.58;;
16510;SDS011;8368;48.772;8.754;2023-10-08T13:11:37;9.60;;;2.97;;
16510;SDS011;8368;48.772;8.754;2023-10-08T13:14:04;9.43;;;2.80;;
16510;SDS011;8368;48.772;8.754;2023-10-08T13:16:29;9.52;;;2.70;;
16510;SDS011;8368;48.772;8.754;2023-10-08T13:18:56;13.98;;;3.15;;
16510;SDS011;8368;48.772;8.754;2023-10-08T13:21:23;7.20;;;3.15;;
16510;SDS011;8368;48.772;8.754;2023-10-08T13:23:50;6.80;;;2.80;;
16510;SDS011;8368;48.772;8.754;2023-10-08T13:26:16;7.75;;;3.10;;
16510;SDS011;8368;48.772;8.754;2023-10-08T13:28:42;5.97;;;2.60;;
16510;SDS011;8368;48.772;8.754;2023-10-08T13:31:09;8.35;;;3.10;;
16510;SDS011;8368;48.772;8.754;2023-10-08T13:33:39;8.63;;;2.40;;
16510;SDS011;8368;48.772;8.754;2023-10-08T13:36:08;8.73;;;3.22;;
16510;SDS011;8368;48.772;8.754;2023-10-08T13:38:35;10.20;;;2.67;;
16510;SDS011;8368;48.772;8.754;2023-10-08T13:41:01;12.73;;;3.05;;
16510;SDS011;8368;48.772;8.754;2023-10-08T13:43:40;6.43;;;3.10;;
16510;SDS011;8368;48.772;8.754;2023-10-08T13:46:10;9.57;;;3.17;;
16510;SDS011;8368;48.772;8.754;2023-10-08T13:48:40;11.40;;;2.95;;
16510;SDS011;8368;48.772;8.754;2023-10-08T13:51:21;9.10;;;3.20;;
16510;SDS011;8368;48.772;8.754;2023-10-08T13:53:51;5.82;;;2.60;;
16510;SDS011;8368;48.772;8.754;2023-10-08T13:56:18;10.80;;;3.15;;
16510;SDS011;8368;48.772;8.754;2023-10-08T13:58:54;13.93;;;3.10;;
16510;SDS011;8368;48.772;8.754;2023-10-08T14:01:39;7.75;;;3.47;;
16510;SDS011;8368;48.772;8.754;2023-10-08T14:04:08;9.98;;;2.90;;
16510;SDS011;8368;48.772;8.754;2023-10-08T14:06:34;8.80;;;3.20;;
16510;SDS011;8368;48.772;8.754;2023-10-08T14:09:02;12.25;;;2.70;;
16510;SDS011;8368;48.772;8.754;2023-10-08T14:11:32;9.07;;;2.72;;
16510;SDS011;8368;48.772;8.754;2023-10-08T14:13:58;14.45;;;3.08;;
16510;SDS011;8368;48.772;8.754;2023-10-08T14:16:28;13.07;;;3.10;;
16510;SDS011;8368;48.772;8.754;2023-10-08T14:18:57;12.40;;;3.45;;
16510;SDS011;8368;48.772;8.754;2023-10-08T14:21:24;10.45;;;3.05;;
16510;SDS011;8368;48.772;8.754;2023-10-08T14:23:55;11.20;;;3.47;;
16510;SDS011;8368;48.772;8.754;2023-10-08T14:26:30;8.90;;;2.63;;
16510;SDS011;8368;48.772;8.754;2023-10-08T14:29:02;8.30;;;3.10;;
16510;SDS011;8368;48.772;8.754;2023-10-08T14:31:40;8.65;;;3.03;;
16510;SDS011;8368;48.772;8.754;2023-10-08T14:34:09;4.40;;;2.72;;
16510;SDS011;8368;48.772;8.754;2023-10-08T14:36:41;12.38;;;3.65;;
16510;SDS011;8368;48.772;8.754;2023-10-08T14:39:25;13.40;;;3.05;;
16510;SDS011;8368;48.772;8.754;2023-10-08T14:42:09;11.23;;;3.55;;
16510;SDS011;8368;48.772;8.754;2023-10-08T14:44:53;11.43;;;3.13;;
16510;SDS011;8368;48.772;8.754;2023-10-08T14:47:19;11.50;;;3.75;;
16510;SDS011;8368;48.772;8.754;2023-10-08T14:49:44;10.32;;;3.15;;
16510;SDS011;8368;48.772;8.754;2023-10-08T14:52:13;7.13;;;2.80;;
16510;SDS011;8368;48.772;8.754;2023-10-08T14:54:39;13.45;;;3.70;;
16510;SDS011;8368;48.772;8.754;2023-10-08T14:57:05;10.75;;;3.10;;
16510;SDS011;8368;48.772;8.754;2023-10-08T14:59:32;13.68;;;3.30;;
16510;SDS011;8368;48.772;8.754;2023-10-08T15:01:58;12.98;;;3.33;;
16510;SDS011;8368;48.772;8.754;2023-10-08T15:04:24;8.90;;;3.20;;
16510;SDS011;8368;48.772;8.754;2023-10-08T15:06:53;8.77;;;3.15;;
16510;SDS011;8368;48.772;8.754;2023-10-08T15:09:20;9.52;;;3.53;;
16510;SDS011;8368;48.772;8.754;2023-10-08T15:11:51;9.02;;;3.47;;
16510;SDS011;8368;48.772;8.754;2023-10-08T15:14:20;13.88;;;2.90;;
16510;SDS011;8368;48.772;8.754;2023-10-08T15:16:48;12.07;;;3.28;;
16510;SDS011;8368;48.772;8.754;2023-10-08T15:19:21;11.30;;;3.60;;
16510;SDS011;8368;48.772;8.754;2023-10-08T15:21:47;6.50;;;2.75;;
16510;SDS011;8368;48.772;8.754;2023-10-08T15:24:25;14.23;;;3.58;;
16510;SDS011;8368;48.772;8.754;2023-10-08T15:26:51;12.15;;;3.22;;
16510;SDS011;8368;48.772;8.754;2023-10-08T15:29:18;18.63;;;3.88;;
16510;SDS011;8368;48.772;8.754;2023-10-08T15:31:45;10.75;;;3.10;;
16510;SDS011;8368;48.772;8.754;2023-10-08T15:34:15;8.68;;;3.33;;
16510;SDS011;8368;48.772;8.754;2023-10-08T15:36:41;13.18;;;3.25;;
16510;SDS011;8368;48.772;8.754;2023-10-08T15:39:07;13.35;;;3.15;;
16510;SDS011;8368;48.772;8.754;2023-10-08T15:41:36;11.57;;;3.03;;
16510;SDS011;8368;48.772;8.754;2023-10-08T15:44:02;10.30;;;4.22;;